Terminal Aerodrome Forecast
Issued by NWS

Home | Current Version | Previous Version | Text Only | Print | Product List | Glossary On
Versions: 1 2 3 4 5 6 7 8 9 10 11 12 13 14 15 16 17 18
000
FTUS42 KGSP 192100 AAA
TAFHKY
TAF AMD
KHKY 192103Z 1921/2018 02007KT 6SM -RADZ BR OVC080
      TEMPO 1921/1924 3SM RADZ BR SCT020 BKN050 OVC070
     FM200300 03010KT P6SM BKN050
     FM201400 02012G22KT P6SM SCT080=

USA.gov is the U.S. government's official web portal to all federal, state and local government web resources and services.